sensor_id;sensor_type;location;lat;lon;timestamp;temperature;humidity
21184;DHT22;18176;49.502;11.754;2023-02-28T00:00:01;-4.10;99.90
21184;DHT22;18176;49.502;11.754;2023-02-28T00:04:10;-4.10;99.90
21184;DHT22;18176;49.502;11.754;2023-02-28T00:08:11;-4.20;99.90
21184;DHT22;18176;49.502;11.754;2023-02-28T00:12:12;-4.20;99.90
21184;DHT22;18176;49.502;11.754;2023-02-28T00:16:14;-4.10;99.90
21184;DHT22;18176;49.502;11.754;2023-02-28T00:20:19;-4.20;99.90
21184;DHT22;18176;49.502;11.754;2023-02-28T00:24:20;-4.20;99.90
21184;DHT22;18176;49.502;11.754;2023-02-28T00:28:21;-4.30;99.90
21184;DHT22;18176;49.502;11.754;2023-02-28T00:32:22;-4.20;99.90
21184;DHT22;18176;49.502;11.754;2023-02-28T00:36:25;-4.40;99.90
21184;DHT22;18176;49.502;11.754;2023-02-28T00:40:25;-4.40;99.90
21184;DHT22;18176;49.502;11.754;2023-02-28T00:44:26;-4.40;99.90
21184;DHT22;18176;49.502;11.754;2023-02-28T00:48:27;-4.40;99.90
21184;DHT22;18176;49.502;11.754;2023-02-28T00:52:31;-4.40;99.90
21184;DHT22;18176;49.502;11.754;2023-02-28T00:56:31;-4.40;99.90
21184;DHT22;18176;49.502;11.754;2023-02-28T01:00:33;-4.20;99.90
21184;DHT22;18176;49.502;11.754;2023-02-28T01:04:34;-4.30;99.90
21184;DHT22;18176;49.502;11.754;2023-02-28T01:08:37;-4.30;99.90
21184;DHT22;18176;49.502;11.754;2023-02-28T01:12:38;-4.30;99.90
21184;DHT22;18176;49.502;11.754;2023-02-28T01:16:39;-4.30;99.90
21184;DHT22;18176;49.502;11.754;2023-02-28T01:20:39;-4.40;99.90
21184;DHT22;18176;49.502;11.754;2023-02-28T01:24:43;-4.30;99.90
21184;DHT22;18176;49.502;11.754;2023-02-28T01:28:44;-4.30;99.90
21184;DHT22;18176;49.502;11.754;2023-02-28T01:32:45;-4.40;99.90
21184;DHT22;18176;49.502;11.754;2023-02-28T01:36:47;-4.40;99.90
21184;DHT22;18176;49.502;11.754;2023-02-28T01:40:51;-4.40;99.90
21184;DHT22;18176;49.502;11.754;2023-02-28T01:44:59;-4.50;99.90
21184;DHT22;18176;49.502;11.754;2023-02-28T01:49:06;-4.70;99.90
21184;DHT22;18176;49.502;11.754;2023-02-28T01:53:13;-4.70;99.90
21184;DHT22;18176;49.502;11.754;2023-02-28T01:57:23;-4.80;99.90
21184;DHT22;18176;49.502;11.754;2023-02-28T02:01:34;-4.80;99.90
21184;DHT22;18176;49.502;11.754;2023-02-28T02:05:37;-4.70;99.90
21184;DHT22;18176;49.502;11.754;2023-02-28T02:09:38;-4.70;99.90
21184;DHT22;18176;49.502;11.754;2023-02-28T02:14:01;-4.80;99.90
21184;DHT22;18176;49.502;11.754;2023-02-28T02:18:19;-5.00;99.90
21184;DHT22;18176;49.502;11.754;2023-02-28T02:27:25;-4.90;99.90
21184;DHT22;18176;49.502;11.754;2023-02-28T02:31:49;-4.90;99.90
21184;DHT22;18176;49.502;11.754;2023-02-28T02:36:05;-4.70;99.90
21184;DHT22;18176;49.502;11.754;2023-02-28T02:40:16;-4.60;99.90
21184;DHT22;18176;49.502;11.754;2023-02-28T02:44:22;-4.60;99.90
21184;DHT22;18176;49.502;11.754;2023-02-28T02:48:30;-4.70;99.90
21184;DHT22;18176;49.502;11.754;2023-02-28T02:52:40;-4.80;99.90
21184;DHT22;18176;49.502;11.754;2023-02-28T02:56:47;-4.80;99.90
21184;DHT22;18176;49.502;11.754;2023-02-28T03:00:53;-4.80;99.90
21184;DHT22;18176;49.502;11.754;2023-02-28T03:04:59;-4.80;99.90
21184;DHT22;18176;49.502;11.754;2023-02-28T03:09:05;-4.80;99.90
21184;DHT22;18176;49.502;11.754;2023-02-28T03:13:37;-4.80;99.90
21184;DHT22;18176;49.502;11.754;2023-02-28T03:18:02;-4.90;99.90
21184;DHT22;18176;49.502;11.754;2023-02-28T03:22:17;-5.00;99.90
21184;DHT22;18176;49.502;11.754;2023-02-28T03:26:36;-5.10;99.90
21184;DHT22;18176;49.502;11.754;2023-02-28T03:30:47;-5.10;99.90
21184;DHT22;18176;49.502;11.754;2023-02-28T03:34:56;-5.10;99.90
21184;DHT22;18176;49.502;11.754;2023-02-28T03:39:05;-5.20;99.90
21184;DHT22;18176;49.502;11.754;2023-02-28T03:43:15;-5.20;99.90
21184;DHT22;18176;49.502;11.754;2023-02-28T03:47:24;-5.30;99.90
21184;DHT22;18176;49.502;11.754;2023-02-28T03:51:30;-5.40;99.90
21184;DHT22;18176;49.502;11.754;2023-02-28T03:55:36;-5.60;99.90
21184;DHT22;18176;49.502;11.754;2023-02-28T03:59:44;-5.60;99.90
21184;DHT22;18176;49.502;11.754;2023-02-28T04:03:49;-5.70;99.90
21184;DHT22;18176;49.502;11.754;2023-02-28T04:07:50;-5.60;99.90
21184;DHT22;18176;49.502;11.754;2023-02-28T04:11:52;-5.30;99.90
21184;DHT22;18176;49.502;11.754;2023-02-28T04:15:56;-5.30;99.90
21184;DHT22;18176;49.502;11.754;2023-02-28T04:19:56;-5.40;99.90
21184;DHT22;18176;49.502;11.754;2023-02-28T04:23:57;-5.60;99.90
21184;DHT22;18176;49.502;11.754;2023-02-28T04:27:58;-5.70;99.90
21184;DHT22;18176;49.502;11.754;2023-02-28T04:32:02;-5.80;99.90
21184;DHT22;18176;49.502;11.754;2023-02-28T04:36:05;-5.90;99.90
21184;DHT22;18176;49.502;11.754;2023-02-28T04:40:09;-5.90;99.90
21184;DHT22;18176;49.502;11.754;2023-02-28T04:44:11;-6.00;99.90
21184;DHT22;18176;49.502;11.754;2023-02-28T04:48:14;-6.00;99.90
21184;DHT22;18176;49.502;11.754;2023-02-28T04:52:17;-5.80;99.90
21184;DHT22;18176;49.502;11.754;2023-02-28T04:56:18;-5.40;99.90
21184;DHT22;18176;49.502;11.754;2023-02-28T05:00:19;-5.20;99.90
21184;DHT22;18176;49.502;11.754;2023-02-28T05:04:24;-5.10;99.90
21184;DHT22;18176;49.502;11.754;2023-02-28T05:08:25;-5.10;99.90
21184;DHT22;18176;49.502;11.754;2023-02-28T05:12:27;-5.20;99.90
21184;DHT22;18176;49.502;11.754;2023-02-28T05:16:28;-5.30;99.90
21184;DHT22;18176;49.502;11.754;2023-02-28T05:20:32;-5.30;99.90
21184;DHT22;18176;49.502;11.754;2023-02-28T05:24:32;-5.30;99.90
21184;DHT22;18176;49.502;11.754;2023-02-28T05:28:33;-5.50;99.90
21184;DHT22;18176;49.502;11.754;2023-02-28T05:32:34;-5.60;99.90
21184;DHT22;18176;49.502;11.754;2023-02-28T05:36:38;-5.80;99.90
21184;DHT22;18176;49.502;11.754;2023-02-28T05:40:39;-5.90;99.90
21184;DHT22;18176;49.502;11.754;2023-02-28T05:44:40;-6.00;99.90
21184;DHT22;18176;49.502;11.754;2023-02-28T05:48:41;-6.00;99.90
21184;DHT22;18176;49.502;11.754;2023-02-28T05:52:49;-5.90;99.90
21184;DHT22;18176;49.502;11.754;2023-02-28T05:56:49;-5.90;99.90
21184;DHT22;18176;49.502;11.754;2023-02-28T06:00:52;-5.90;99.90
21184;DHT22;18176;49.502;11.754;2023-02-28T06:04:52;-5.90;99.90
21184;DHT22;18176;49.502;11.754;2023-02-28T06:08:56;-5.90;99.90
21184;DHT22;18176;49.502;11.754;2023-02-28T06:12:59;-5.90;99.90
21184;DHT22;18176;49.502;11.754;2023-02-28T06:17:00;-5.70;99.90
21184;DHT22;18176;49.502;11.754;2023-02-28T06:21:01;-5.70;99.90
21184;DHT22;18176;49.502;11.754;2023-02-28T06:25:06;-5.70;99.90
21184;DHT22;18176;49.502;11.754;2023-02-28T06:29:07;-5.60;99.90
21184;DHT22;18176;49.502;11.754;2023-02-28T06:33:08;-5.20;99.90
21184;DHT22;18176;49.502;11.754;2023-02-28T06:37:09;-4.90;99.90
21184;DHT22;18176;49.502;11.754;2023-02-28T06:41:12;-4.90;99.90
21184;DHT22;18176;49.502;11.754;2023-02-28T06:45:13;-5.00;99.90
21184;DHT22;18176;49.502;11.754;2023-02-28T06:49:14;-5.10;99.90
21184;DHT22;18176;49.502;11.754;2023-02-28T06:53:14;-5.10;99.90
21184;DHT22;18176;49.502;11.754;2023-02-28T06:57:18;-5.00;99.90
21184;DHT22;18176;49.502;11.754;2023-02-28T07:01:20;-4.80;99.90
21184;DHT22;18176;49.502;11.754;2023-02-28T07:05:21;-4.50;99.90
21184;DHT22;18176;49.502;11.754;2023-02-28T07:09:21;-4.40;99.90
21184;DHT22;18176;49.502;11.754;2023-02-28T07:13:30;-3.90;99.90
21184;DHT22;18176;49.502;11.754;2023-02-28T07:17:31;-3.30;99.90
21184;DHT22;18176;49.502;11.754;2023-02-28T07:21:32;-2.80;99.90
21184;DHT22;18176;49.502;11.754;2023-02-28T07:25:33;-2.50;99.90
21184;DHT22;18176;49.502;11.754;2023-02-28T07:29:36;-2.20;99.90
21184;DHT22;18176;49.502;11.754;2023-02-28T07:33:37;-2.00;99.90
21184;DHT22;18176;49.502;11.754;2023-02-28T07:37:38;-1.70;99.90
21184;DHT22;18176;49.502;11.754;2023-02-28T07:41:39;-1.30;99.90
21184;DHT22;18176;49.502;11.754;2023-02-28T07:45:43;-1.20;99.90
21184;DHT22;18176;49.502;11.754;2023-02-28T07:49:45;-1.00;99.90
21184;DHT22;18176;49.502;11.754;2023-02-28T07:53:46;-0.90;99.90
21184;DHT22;18176;49.502;11.754;2023-02-28T07:57:47;-0.70;99.90
21184;DHT22;18176;49.502;11.754;2023-02-28T08:01:51;-0.50;99.90
21184;DHT22;18176;49.502;11.754;2023-02-28T08:05:51;-0.30;99.90
21184;DHT22;18176;49.502;11.754;2023-02-28T08:09:52;-0.10;99.90
21184;DHT22;18176;49.502;11.754;2023-02-28T08:13:54;0.20;99.90
21184;DHT22;18176;49.502;11.754;2023-02-28T08:17:58;0.40;99.90
21184;DHT22;18176;49.502;11.754;2023-02-28T08:21:58;0.60;99.90
21184;DHT22;18176;49.502;11.754;2023-02-28T08:26:01;0.50;99.90
21184;DHT22;18176;49.502;11.754;2023-02-28T08:30:03;0.70;99.90
21184;DHT22;18176;49.502;11.754;2023-02-28T08:34:08;0.80;99.90
21184;DHT22;18176;49.502;11.754;2023-02-28T08:38:11;0.90;99.90
21184;DHT22;18176;49.502;11.754;2023-02-28T08:42:11;1.00;99.90
21184;DHT22;18176;49.502;11.754;2023-02-28T08:46:13;1.10;99.90
21184;DHT22;18176;49.502;11.754;2023-02-28T08:50:16;1.30;99.90
21184;DHT22;18176;49.502;11.754;2023-02-28T08:54:17;1.40;99.90
21184;DHT22;18176;49.502;11.754;2023-02-28T08:58:18;1.50;99.90
21184;DHT22;18176;49.502;11.754;2023-02-28T09:02:18;1.60;99.90
21184;DHT22;18176;49.502;11.754;2023-02-28T09:06:23;1.50;99.90
21184;DHT22;18176;49.502;11.754;2023-02-28T09:10:26;1.30;99.90
21184;DHT22;18176;49.502;11.754;2023-02-28T09:14:27;1.20;99.90
21184;DHT22;18176;49.502;11.754;2023-02-28T09:18:29;1.20;99.90
21184;DHT22;18176;49.502;11.754;2023-02-28T09:22:32;1.00;99.90
21184;DHT22;18176;49.502;11.754;2023-02-28T09:26:33;0.70;99.90
21184;DHT22;18176;49.502;11.754;2023-02-28T09:30:46;0.90;99.90
21184;DHT22;18176;49.502;11.754;2023-02-28T09:34:48;0.70;99.90
21184;DHT22;18176;49.502;11.754;2023-02-28T09:38:54;1.10;99.90
21184;DHT22;18176;49.502;11.754;2023-02-28T09:42:55;1.60;99.90
21184;DHT22;18176;49.502;11.754;2023-02-28T09:47:07;1.80;99.90
21184;DHT22;18176;49.502;11.754;2023-02-28T09:51:33;1.80;99.90
21184;DHT22;18176;49.502;11.754;2023-02-28T09:55:47;2.20;99.90
21184;DHT22;18176;49.502;11.754;2023-02-28T10:00:00;2.40;99.90
21184;DHT22;18176;49.502;11.754;2023-02-28T10:04:16;2.80;99.90
21184;DHT22;18176;49.502;11.754;2023-02-28T10:08:32;3.30;99.90
21184;DHT22;18176;49.502;11.754;2023-02-28T10:12:44;3.80;99.90
21184;DHT22;18176;49.502;11.754;2023-02-28T10:16:50;3.80;99.90
21184;DHT22;18176;49.502;11.754;2023-02-28T10:20:56;4.00;99.90
21184;DHT22;18176;49.502;11.754;2023-02-28T10:24:58;4.50;99.90
21184;DHT22;18176;49.502;11.754;2023-02-28T10:29:08;4.50;99.90
21184;DHT22;18176;49.502;11.754;2023-02-28T10:33:18;4.60;99.90
21184;DHT22;18176;49.502;11.754;2023-02-28T10:37:22;5.00;99.90
21184;DHT22;18176;49.502;11.754;2023-02-28T10:41:30;5.10;99.90
21184;DHT22;18176;49.502;11.754;2023-02-28T10:45:36;6.20;99.90
21184;DHT22;18176;49.502;11.754;2023-02-28T10:49:37;6.20;99.90
21184;DHT22;18176;49.502;11.754;2023-02-28T10:53:49;6.30;99.90
21184;DHT22;18176;49.502;11.754;2023-02-28T10:58:00;6.70;99.90
21184;DHT22;18176;49.502;11.754;2023-02-28T11:02:29;7.10;99.40
21184;DHT22;18176;49.502;11.754;2023-02-28T11:06:34;7.20;99.50
21184;DHT22;18176;49.502;11.754;2023-02-28T11:10:36;7.60;97.80
21184;DHT22;18176;49.502;11.754;2023-02-28T11:14:49;7.40;97.80
21184;DHT22;18176;49.502;11.754;2023-02-28T11:18:56;8.00;97.80
21184;DHT22;18176;49.502;11.754;2023-02-28T11:23:01;8.40;95.30
21184;DHT22;18176;49.502;11.754;2023-02-28T11:27:11;7.80;96.00
21184;DHT22;18176;49.502;11.754;2023-02-28T11:31:45;7.40;96.30
21184;DHT22;18176;49.502;11.754;2023-02-28T11:36:11;7.80;96.40
21184;DHT22;18176;49.502;11.754;2023-02-28T11:40:19;7.90;95.50
21184;DHT22;18176;49.502;11.754;2023-02-28T11:44:35;8.00;94.80
21184;DHT22;18176;49.502;11.754;2023-02-28T11:48:54;7.40;95.50
21184;DHT22;18176;49.502;11.754;2023-02-28T11:53:17;7.30;96.50
21184;DHT22;18176;49.502;11.754;2023-02-28T11:57:49;7.80;96.40
21184;DHT22;18176;49.502;11.754;2023-02-28T12:02:23;7.50;95.10
21184;DHT22;18176;49.502;11.754;2023-02-28T12:06:36;7.10;96.00
21184;DHT22;18176;49.502;11.754;2023-02-28T12:10:54;7.70;96.50
21184;DHT22;18176;49.502;11.754;2023-02-28T12:15:27;8.50;93.90
21184;DHT22;18176;49.502;11.754;2023-02-28T12:19:44;8.40;93.60
21184;DHT22;18176;49.502;11.754;2023-02-28T12:24:27;9.40;93.70
21184;DHT22;18176;49.502;11.754;2023-02-28T12:28:46;8.90;92.30
21184;DHT22;18176;49.502;11.754;2023-02-28T12:32:56;9.50;92.10
21184;DHT22;18176;49.502;11.754;2023-02-28T12:37:06;10.10;91.70
21184;DHT22;18176;49.502;11.754;2023-02-28T12:41:18;10.10;90.60
21184;DHT22;18176;49.502;11.754;2023-02-28T12:45:39;10.80;89.80
21184;DHT22;18176;49.502;11.754;2023-02-28T12:49:50;9.80;90.00
21184;DHT22;18176;49.502;11.754;2023-02-28T12:54:03;9.60;90.20
21184;DHT22;18176;49.502;11.754;2023-02-28T12:58:17;9.30;91.40
21184;DHT22;18176;49.502;11.754;2023-02-28T13:07:49;10.50;87.70
21184;DHT22;18176;49.502;11.754;2023-02-28T13:12:16;9.90;88.30
21184;DHT22;18176;49.502;11.754;2023-02-28T13:16:17;10.70;87.10
21184;DHT22;18176;49.502;11.754;2023-02-28T13:20:20;11.30;85.10
21184;DHT22;18176;49.502;11.754;2023-02-28T13:24:46;12.00;81.30
21184;DHT22;18176;49.502;11.754;2023-02-28T13:29:00;12.50;79.90
21184;DHT22;18176;49.502;11.754;2023-02-28T13:33:21;12.30;79.70
21184;DHT22;18176;49.502;11.754;2023-02-28T13:37:37;11.40;80.50
21184;DHT22;18176;49.502;11.754;2023-02-28T13:41:49;11.20;81.70
21184;DHT22;18176;49.502;11.754;2023-02-28T13:46:11;10.90;82.40
21184;DHT22;18176;49.502;11.754;2023-02-28T13:50:21;11.00;82.50
21184;DHT22;18176;49.502;11.754;2023-02-28T13:54:37;10.20;82.90
21184;DHT22;18176;49.502;11.754;2023-02-28T13:58:55;10.10;83.50
21184;DHT22;18176;49.502;11.754;2023-02-28T14:03:15;9.80;85.10
21184;DHT22;18176;49.502;11.754;2023-02-28T14:07:39;9.80;84.90
21184;DHT22;18176;49.502;11.754;2023-02-28T14:11:53;9.80;85.10
21184;DHT22;18176;49.502;11.754;2023-02-28T14:16:01;9.20;86.70
21184;DHT22;18176;49.502;11.754;2023-02-28T14:20:14;9.50;87.40
21184;DHT22;18176;49.502;11.754;2023-02-28T14:24:41;10.20;85.30
21184;DHT22;18176;49.502;11.754;2023-02-28T14:34:42;10.60;84.00
21184;DHT22;18176;49.502;11.754;2023-02-28T14:38:53;10.30;84.00
21184;DHT22;18176;49.502;11.754;2023-02-28T14:42:59;10.10;83.80
21184;DHT22;18176;49.502;11.754;2023-02-28T14:47:02;9.60;85.10
21184;DHT22;18176;49.502;11.754;2023-02-28T14:51:09;8.40;88.20
21184;DHT22;18176;49.502;11.754;2023-02-28T14:55:17;8.80;88.80
21184;DHT22;18176;49.502;11.754;2023-02-28T14:59:26;9.00;89.10
21184;DHT22;18176;49.502;11.754;2023-02-28T15:03:34;9.10;87.10
21184;DHT22;18176;49.502;11.754;2023-02-28T15:07:39;8.60;87.90
21184;DHT22;18176;49.502;11.754;2023-02-28T15:11:40;8.50;89.90
21184;DHT22;18176;49.502;11.754;2023-02-28T15:15:49;8.90;88.50
21184;DHT22;18176;49.502;11.754;2023-02-28T15:20:00;8.80;88.60
21184;DHT22;18176;49.502;11.754;2023-02-28T15:24:10;8.00;90.40
21184;DHT22;18176;49.502;11.754;2023-02-28T15:28:22;7.70;91.10
21184;DHT22;18176;49.502;11.754;2023-02-28T15:32:28;7.20;91.70
21184;DHT22;18176;49.502;11.754;2023-02-28T15:36:32;7.10;91.80
21184;DHT22;18176;49.502;11.754;2023-02-28T15:40:42;7.10;92.50
21184;DHT22;18176;49.502;11.754;2023-02-28T15:44:51;7.00;92.70
21184;DHT22;18176;49.502;11.754;2023-02-28T15:48:53;6.60;93.10
21184;DHT22;18176;49.502;11.754;2023-02-28T15:52:56;6.70;92.90
21184;DHT22;18176;49.502;11.754;2023-02-28T15:57:04;6.50;93.60
21184;DHT22;18176;49.502;11.754;2023-02-28T16:01:16;6.20;93.80
21184;DHT22;18176;49.502;11.754;2023-02-28T16:05:22;6.30;93.90
21184;DHT22;18176;49.502;11.754;2023-02-28T16:09:29;6.10;94.30
21184;DHT22;18176;49.502;11.754;2023-02-28T16:13:34;5.90;94.50
21184;DHT22;18176;49.502;11.754;2023-02-28T16:17:37;5.70;95.00
21184;DHT22;18176;49.502;11.754;2023-02-28T16:21:38;5.30;95.80
21184;DHT22;18176;49.502;11.754;2023-02-28T16:25:43;5.00;96.80
21184;DHT22;18176;49.502;11.754;2023-02-28T16:29:47;4.70;97.40
21184;DHT22;18176;49.502;11.754;2023-02-28T16:33:48;4.40;98.40
21184;DHT22;18176;49.502;11.754;2023-02-28T16:37:50;3.90;99.90
21184;DHT22;18176;49.502;11.754;2023-02-28T16:41:52;3.50;99.90
21184;DHT22;18176;49.502;11.754;2023-02-28T16:45:57;3.20;99.90
21184;DHT22;18176;49.502;11.754;2023-02-28T16:49:58;2.90;99.90
21184;DHT22;18176;49.502;11.754;2023-02-28T16:53:58;2.60;99.90
21184;DHT22;18176;49.502;11.754;2023-02-28T16:58:00;2.40;99.90
21184;DHT22;18176;49.502;11.754;2023-02-28T17:02:10;2.10;99.90
21184;DHT22;18176;49.502;11.754;2023-02-28T17:06:17;1.90;99.90
21184;DHT22;18176;49.502;11.754;2023-02-28T17:10:22;1.80;99.90
21184;DHT22;18176;49.502;11.754;2023-02-28T17:14:25;1.60;99.90
21184;DHT22;18176;49.502;11.754;2023-02-28T17:18:28;1.50;99.90
21184;DHT22;18176;49.502;11.754;2023-02-28T17:22:31;1.30;99.90
21184;DHT22;18176;49.502;11.754;2023-02-28T17:26:31;1.20;99.90
21184;DHT22;18176;49.502;11.754;2023-02-28T17:30:33;1.10;99.90
21184;DHT22;18176;49.502;11.754;2023-02-28T17:34:37;1.00;99.90
21184;DHT22;18176;49.502;11.754;2023-02-28T17:38:38;0.90;99.90
21184;DHT22;18176;49.502;11.754;2023-02-28T17:42:38;0.70;99.90
21184;DHT22;18176;49.502;11.754;2023-02-28T17:46:39;0.70;99.90
21184;DHT22;18176;49.502;11.754;2023-02-28T17:50:43;0.50;99.90
21184;DHT22;18176;49.502;11.754;2023-02-28T17:54:43;0.30;99.90
21184;DHT22;18176;49.502;11.754;2023-02-28T17:58:44;0.20;99.90
21184;DHT22;18176;49.502;11.754;2023-02-28T18:02:45;0.00;99.90
21184;DHT22;18176;49.502;11.754;2023-02-28T18:06:48;0.00;99.90
21184;DHT22;18176;49.502;11.754;2023-02-28T18:10:49;-0.10;99.90
21184;DHT22;18176;49.502;11.754;2023-02-28T18:14:50;-0.20;99.90
21184;DHT22;18176;49.502;11.754;2023-02-28T18:18:50;-0.30;99.90
21184;DHT22;18176;49.502;11.754;2023-02-28T18:22:54;-0.40;99.90
21184;DHT22;18176;49.502;11.754;2023-02-28T18:26:57;-0.60;99.90
21184;DHT22;18176;49.502;11.754;2023-02-28T18:30:59;-0.60;99.90
21184;DHT22;18176;49.502;11.754;2023-02-28T18:35:06;-0.70;99.90
21184;DHT22;18176;49.502;11.754;2023-02-28T18:39:10;-0.70;99.90
21184;DHT22;18176;49.502;11.754;2023-02-28T18:43:12;-0.80;99.90
21184;DHT22;18176;49.502;11.754;2023-02-28T18:47:12;-0.70;99.90
21184;DHT22;18176;49.502;11.754;2023-02-28T18:51:15;-0.70;99.90
21184;DHT22;18176;49.502;11.754;2023-02-28T18:55:19;-0.70;99.90
21184;DHT22;18176;49.502;11.754;2023-02-28T18:59:20;-0.80;99.90
21184;DHT22;18176;49.502;11.754;2023-02-28T19:03:20;-0.80;99.90
21184;DHT22;18176;49.502;11.754;2023-02-28T19:07:21;-0.90;99.90
21184;DHT22;18176;49.502;11.754;2023-02-28T19:11:25;-1.00;99.90
21184;DHT22;18176;49.502;11.754;2023-02-28T19:15:25;-1.00;99.90
21184;DHT22;18176;49.502;11.754;2023-02-28T19:19:26;-1.10;99.90
21184;DHT22;18176;49.502;11.754;2023-02-28T19:23:28;-1.10;99.90
21184;DHT22;18176;49.502;11.754;2023-02-28T19:27:33;-1.10;99.90
21184;DHT22;18176;49.502;11.754;2023-02-28T19:31:34;-1.00;99.90
21184;DHT22;18176;49.502;11.754;2023-02-28T19:35:35;-1.00;99.90
21184;DHT22;18176;49.502;11.754;2023-02-28T19:39:35;-1.00;99.90
21184;DHT22;18176;49.502;11.754;2023-02-28T19:43:42;-1.00;99.90
21184;DHT22;18176;49.502;11.754;2023-02-28T19:47:43;-1.00;99.90
21184;DHT22;18176;49.502;11.754;2023-02-28T19:51:43;-1.00;99.90
21184;DHT22;18176;49.502;11.754;2023-02-28T19:55:45;-1.00;99.90
21184;DHT22;18176;49.502;11.754;2023-02-28T19:59:50;-1.10;99.90
21184;DHT22;18176;49.502;11.754;2023-02-28T20:03:51;-1.20;99.90
21184;DHT22;18176;49.502;11.754;2023-02-28T20:07:52;-1.30;99.90
21184;DHT22;18176;49.502;11.754;2023-02-28T20:11:52;-1.40;99.90
21184;DHT22;18176;49.502;11.754;2023-02-28T20:16:01;-1.50;99.90
21184;DHT22;18176;49.502;11.754;2023-02-28T20:20:06;-1.50;99.90
21184;DHT22;18176;49.502;11.754;2023-02-28T20:24:08;-1.60;99.90
21184;DHT22;18176;49.502;11.754;2023-02-28T20:28:09;-1.70;99.90
21184;DHT22;18176;49.502;11.754;2023-02-28T20:32:12;-1.90;99.90
21184;DHT22;18176;49.502;11.754;2023-02-28T20:36:13;-2.00;99.90
21184;DHT22;18176;49.502;11.754;2023-02-28T20:40:16;-2.10;99.90
21184;DHT22;18176;49.502;11.754;2023-02-28T20:44:16;-2.20;99.90
21184;DHT22;18176;49.502;11.754;2023-02-28T20:48:20;-2.30;99.90
21184;DHT22;18176;49.502;11.754;2023-02-28T20:52:20;-2.50;99.90
21184;DHT22;18176;49.502;11.754;2023-02-28T20:56:22;-2.50;99.90
21184;DHT22;18176;49.502;11.754;2023-02-28T21:00:23;-2.60;99.90
21184;DHT22;18176;49.502;11.754;2023-02-28T21:04:27;-2.60;99.90
21184;DHT22;18176;49.502;11.754;2023-02-28T21:08:28;-2.70;99.90
21184;DHT22;18176;49.502;11.754;2023-02-28T21:12:29;-2.80;99.90
21184;DHT22;18176;49.502;11.754;2023-02-28T21:16:29;-2.80;99.90
21184;DHT22;18176;49.502;11.754;2023-02-28T21:20:36;-2.80;99.90
21184;DHT22;18176;49.502;11.754;2023-02-28T21:24:37;-2.80;99.90
21184;DHT22;18176;49.502;11.754;2023-02-28T21:28:38;-2.80;99.90
21184;DHT22;18176;49.502;11.754;2023-02-28T21:32:40;-2.90;99.90
21184;DHT22;18176;49.502;11.754;2023-02-28T21:36:44;-2.90;99.90
21184;DHT22;18176;49.502;11.754;2023-02-28T21:40:45;-2.90;99.90
21184;DHT22;18176;49.502;11.754;2023-02-28T21:44:47;-3.00;99.90
21184;DHT22;18176;49.502;11.754;2023-02-28T21:48:48;-3.00;99.90
21184;DHT22;18176;49.502;11.754;2023-02-28T21:52:52;-3.00;99.90
21184;DHT22;18176;49.502;11.754;2023-02-28T21:56:52;-3.00;99.90
21184;DHT22;18176;49.502;11.754;2023-02-28T22:01:03;-2.90;99.90
21184;DHT22;18176;49.502;11.754;2023-02-28T22:05:05;-2.70;99.90
21184;DHT22;18176;49.502;11.754;2023-02-28T22:09:09;-2.60;99.90
21184;DHT22;18176;49.502;11.754;2023-02-28T22:13:09;-2.40;99.90
21184;DHT22;18176;49.502;11.754;2023-02-28T22:17:10;-2.40;99.90
21184;DHT22;18176;49.502;11.754;2023-02-28T22:21:11;-2.50;99.90
21184;DHT22;18176;49.502;11.754;2023-02-28T22:25:16;-2.40;99.90
21184;DHT22;18176;49.502;11.754;2023-02-28T22:29:17;-2.40;99.90
21184;DHT22;18176;49.502;11.754;2023-02-28T22:33:18;-2.40;99.90
21184;DHT22;18176;49.502;11.754;2023-02-28T22:37:18;-2.50;99.90
21184;DHT22;18176;49.502;11.754;2023-02-28T22:41:22;-2.50;99.90
21184;DHT22;18176;49.502;11.754;2023-02-28T22:45:23;-2.60;99.90
21184;DHT22;18176;49.502;11.754;2023-02-28T22:49:23;-2.70;99.90
21184;DHT22;18176;49.502;11.754;2023-02-28T22:53:24;-2.80;99.90
21184;DHT22;18176;49.502;11.754;2023-02-28T22:57:27;-2.80;99.90
21184;DHT22;18176;49.502;11.754;2023-02-28T23:01:30;-2.90;99.90
21184;DHT22;18176;49.502;11.754;2023-02-28T23:05:32;-2.80;99.90
21184;DHT22;18176;49.502;11.754;2023-02-28T23:09:33;-2.80;99.90
21184;DHT22;18176;49.502;11.754;2023-02-28T23:13:36;-2.80;99.90
21184;DHT22;18176;49.502;11.754;2023-02-28T23:17:37;-2.80;99.90
21184;DHT22;18176;49.502;11.754;2023-02-28T23:21:38;-2.90;99.90
21184;DHT22;18176;49.502;11.754;2023-02-28T23:25:39;-3.10;99.90
21184;DHT22;18176;49.502;11.754;2023-02-28T23:29:43;-3.10;99.90
21184;DHT22;18176;49.502;11.754;2023-02-28T23:33:44;-3.00;99.90
21184;DHT22;18176;49.502;11.754;2023-02-28T23:37:44;-2.90;99.90
21184;DHT22;18176;49.502;11.754;2023-02-28T23:41:45;-2.80;99.90
21184;DHT22;18176;49.502;11.754;2023-02-28T23:45:56;-2.90;99.90
21184;DHT22;18176;49.502;11.754;2023-02-28T23:49:57;-2.90;99.90
21184;DHT22;18176;49.502;11.754;2023-02-28T23:53:57;-2.90;99.90
21184;DHT22;18176;49.502;11.754;2023-02-28T23:58:00;-3.00;99.90
